TGL6602 KMIA-MYNN
Flight info
| Callsign | TGL6602 |
|---|---|
| Flight time | 0h 36m |
| Altitude | 17000 |
| Route | KLADA2 RAJAY |
| Aircraft | A320/M-SDE3FGHIRWY/LB1 |
Departure
| Time | 2026-05-05 08:53 |
|---|---|
| Airport | Miami International Airport (KMIA) |
Arrival
| Time | 2026-05-05 09:29 |
|---|---|
| Airport | Lynden Pindling International Airport (MYNN) |
| Time | Latitude | Longitude | Altitude | Speed | Heading |
|---|---|---|---|---|---|
| 2026-05-05 08:35 | 25.79780 | -80.27835 | 18 ft | 0 kts | 178° |
| 2026-05-05 08:38 | 25.79781 | -80.27835 | 18 ft | 1 kts | 178° |
| 2026-05-05 08:38 | 25.79802 | -80.27836 | 20 ft | 3 kts | 178° |
| 2026-05-05 08:38 | 25.79825 | -80.27837 | 21 ft | 3 kts | 179° |
| 2026-05-05 08:39 | 25.79849 | -80.27836 | 20 ft | 3 kts | 188° |
| 2026-05-05 08:39 | 25.79871 | -80.27830 | 18 ft | 3 kts | 212° |
| 2026-05-05 08:39 | 25.79885 | -80.27815 | 18 ft | 3 kts | 264° |
| 2026-05-05 08:39 | 25.79885 | -80.27812 | 18 ft | 0 kts | 266° |
| 2026-05-05 08:44 | 25.79884 | -80.27828 | 18 ft | 5 kts | 269° |
| 2026-05-05 08:44 | 25.79901 | -80.27875 | 19 ft | 9 kts | 316° |
| 2026-05-05 08:45 | 25.79973 | -80.27894 | 17 ft | 13 kts | 357° |
| 2026-05-05 08:45 | 25.80046 | -80.27951 | 16 ft | 15 kts | 287° |
| 2026-05-05 08:45 | 25.80046 | -80.28069 | 16 ft | 16 kts | 268° |
| 2026-05-05 08:45 | 25.80043 | -80.28193 | 19 ft | 16 kts | 267° |
| 2026-05-05 08:46 | 25.80036 | -80.28316 | 20 ft | 16 kts | 266° |
| 2026-05-05 08:46 | 25.80031 | -80.28445 | 19 ft | 17 kts | 267° |
| 2026-05-05 08:46 | 25.80025 | -80.28565 | 22 ft | 14 kts | 267° |
| 2026-05-05 08:46 | 25.80021 | -80.28656 | 25 ft | 10 kts | 268° |
| 2026-05-05 08:47 | 25.80019 | -80.28719 | 27 ft | 7 kts | 268° |
| 2026-05-05 08:47 | 25.80018 | -80.28766 | 27 ft | 6 kts | 268° |
| 2026-05-05 08:47 | 25.80016 | -80.28821 | 27 ft | 13 kts | 268° |
| 2026-05-05 08:47 | 25.80010 | -80.28956 | 24 ft | 19 kts | 267° |
| 2026-05-05 08:48 | 25.80004 | -80.29110 | 25 ft | 20 kts | 268° |
| 2026-05-05 08:48 | 25.79997 | -80.29270 | 25 ft | 22 kts | 268° |
| 2026-05-05 08:48 | 25.79990 | -80.29461 | 18 ft | 27 kts | 268° |
| 2026-05-05 08:48 | 25.79983 | -80.29672 | 18 ft | 24 kts | 268° |
| 2026-05-05 08:49 | 25.80002 | -80.29750 | 19 ft | 0 kts | 327° |
| 2026-05-05 08:51 | 25.80003 | -80.29750 | 18 ft | 1 kts | 328° |
| 2026-05-05 08:51 | 25.80039 | -80.29764 | 18 ft | 9 kts | 357° |
| 2026-05-05 08:51 | 25.80080 | -80.29736 | 18 ft | 6 kts | 60° |
| 2026-05-05 08:51 | 25.80088 | -80.29695 | 18 ft | 5 kts | 83° |
| 2026-05-05 08:52 | 25.80092 | -80.29660 | 18 ft | 8 kts | 83° |
| 2026-05-05 08:52 | 25.80116 | -80.29379 | 21 ft | 73 kts | 89° |
| 2026-05-05 08:52 | 25.80137 | -80.28571 | 25 ft | 135 kts | 87° |
| 2026-05-05 08:52 | 25.80200 | -80.27384 | 297 ft | 160 kts | 85° |
| 2026-05-05 08:53 | 25.80242 | -80.26157 | 913 ft | 159 kts | 96° |
| 2026-05-05 08:53 | 25.79910 | -80.24989 | 1566 ft | 160 kts | 114° |
| 2026-05-05 08:53 | 25.79403 | -80.23838 | 2114 ft | 175 kts | 114° |
| 2026-05-05 08:53 | 25.78830 | -80.22547 | 2529 ft | 198 kts | 115° |
| 2026-05-05 08:54 | 25.78181 | -80.21095 | 2860 ft | 222 kts | 115° |
| 2026-05-05 08:54 | 25.77454 | -80.19473 | 3313 ft | 247 kts | 116° |
| 2026-05-05 08:54 | 25.76649 | -80.17694 | 3882 ft | 266 kts | 117° |
| 2026-05-05 08:54 | 25.75765 | -80.15849 | 4734 ft | 275 kts | 118° |
| 2026-05-05 08:55 | 25.74829 | -80.13962 | 5590 ft | 283 kts | 120° |
| 2026-05-05 08:55 | 25.73863 | -80.12036 | 6484 ft | 289 kts | 120° |
| 2026-05-05 08:55 | 25.73015 | -80.09996 | 7316 ft | 295 kts | 112° |
| 2026-05-05 08:55 | 25.72295 | -80.07842 | 8156 ft | 300 kts | 112° |
| 2026-05-05 08:56 | 25.71569 | -80.05644 | 8978 ft | 307 kts | 112° |
| 2026-05-05 08:56 | 25.70832 | -80.03400 | 9797 ft | 313 kts | 113° |
| 2026-05-05 08:56 | 25.70071 | -80.01097 | 10340 ft | 328 kts | 114° |
| 2026-05-05 08:56 | 25.69252 | -79.98646 | 10638 ft | 350 kts | 113° |
| 2026-05-05 08:57 | 25.68395 | -79.96080 | 11237 ft | 359 kts | 113° |
| 2026-05-05 08:57 | 25.67808 | -79.94316 | 11709 ft | 363 kts | 113° |
| 2026-05-05 08:57 | 25.66930 | -79.91670 | 12419 ft | 368 kts | 113° |
| 2026-05-05 08:57 | 25.66044 | -79.88990 | 13116 ft | 373 kts | 112° |
| 2026-05-05 08:58 | 25.65143 | -79.86267 | 13804 ft | 379 kts | 112° |
| 2026-05-05 08:58 | 25.64228 | -79.83511 | 14413 ft | 383 kts | 112° |
| 2026-05-05 08:58 | 25.63304 | -79.80731 | 15020 ft | 388 kts | 112° |
| 2026-05-05 08:58 | 25.62360 | -79.77900 | 15624 ft | 393 kts | 113° |
| 2026-05-05 08:59 | 25.61407 | -79.75053 | 16216 ft | 397 kts | 113° |
| 2026-05-05 08:59 | 25.60438 | -79.72159 | 16756 ft | 403 kts | 113° |
| 2026-05-05 08:59 | 25.59563 | -79.69200 | 16952 ft | 407 kts | 105° |
| 2026-05-05 08:59 | 25.58987 | -79.66178 | 16995 ft | 394 kts | 104° |
| 2026-05-05 09:00 | 25.58435 | -79.63229 | 16995 ft | 389 kts | 104° |
| 2026-05-05 09:00 | 25.57881 | -79.60304 | 16983 ft | 387 kts | 104° |
| 2026-05-05 09:00 | 25.57325 | -79.57383 | 16996 ft | 388 kts | 104° |
| 2026-05-05 09:00 | 25.56767 | -79.54460 | 16997 ft | 388 kts | 104° |
| 2026-05-05 09:01 | 25.56208 | -79.51536 | 17001 ft | 388 kts | 104° |
| 2026-05-05 09:01 | 25.55646 | -79.48618 | 16998 ft | 388 kts | 104° |
| 2026-05-05 09:01 | 25.55083 | -79.45695 | 16993 ft | 388 kts | 104° |
| 2026-05-05 09:01 | 25.54519 | -79.42770 | 16996 ft | 388 kts | 104° |
| 2026-05-05 09:02 | 25.53956 | -79.39852 | 16991 ft | 388 kts | 104° |
| 2026-05-05 09:02 | 25.53393 | -79.36934 | 16994 ft | 388 kts | 104° |
| 2026-05-05 09:02 | 25.52833 | -79.34019 | 16995 ft | 388 kts | 104° |
| 2026-05-05 09:02 | 25.52270 | -79.31098 | 16998 ft | 388 kts | 104° |
| 2026-05-05 09:03 | 25.51706 | -79.28183 | 16999 ft | 388 kts | 104° |
| 2026-05-05 09:03 | 25.51142 | -79.25263 | 16996 ft | 388 kts | 104° |
| 2026-05-05 09:03 | 25.50578 | -79.22345 | 16993 ft | 388 kts | 104° |
| 2026-05-05 09:03 | 25.50015 | -79.19426 | 16998 ft | 388 kts | 104° |
| 2026-05-05 09:04 | 25.49448 | -79.16506 | 17001 ft | 388 kts | 104° |
| 2026-05-05 09:04 | 25.48871 | -79.13554 | 17003 ft | 388 kts | 104° |
| 2026-05-05 09:04 | 25.48300 | -79.10635 | 17007 ft | 388 kts | 104° |
| 2026-05-05 09:04 | 25.47730 | -79.07710 | 17007 ft | 388 kts | 104° |
| 2026-05-05 09:05 | 25.47163 | -79.04792 | 17000 ft | 388 kts | 104° |
| 2026-05-05 09:05 | 25.46593 | -79.01865 | 17007 ft | 388 kts | 104° |
| 2026-05-05 09:05 | 25.46025 | -78.98948 | 17016 ft | 388 kts | 104° |
| 2026-05-05 09:05 | 25.45457 | -78.96023 | 17011 ft | 388 kts | 104° |
| 2026-05-05 09:06 | 25.44889 | -78.93105 | 17012 ft | 388 kts | 104° |
| 2026-05-05 09:06 | 25.44316 | -78.90184 | 17012 ft | 388 kts | 104° |
| 2026-05-05 09:06 | 25.43739 | -78.87263 | 17017 ft | 388 kts | 105° |
| 2026-05-05 09:06 | 25.43161 | -78.84346 | 17016 ft | 388 kts | 104° |
| 2026-05-05 09:07 | 25.42586 | -78.81427 | 17016 ft | 388 kts | 104° |
| 2026-05-05 09:07 | 25.42014 | -78.78510 | 17012 ft | 388 kts | 104° |
| 2026-05-05 09:07 | 25.41440 | -78.75592 | 17012 ft | 388 kts | 104° |
| 2026-05-05 09:07 | 25.40865 | -78.72675 | 17012 ft | 388 kts | 104° |
| 2026-05-05 09:08 | 25.40290 | -78.69764 | 17010 ft | 388 kts | 104° |
| 2026-05-05 09:08 | 25.39714 | -78.66850 | 17011 ft | 388 kts | 104° |
| 2026-05-05 09:08 | 25.39138 | -78.63940 | 17011 ft | 387 kts | 104° |
| 2026-05-05 09:08 | 25.38559 | -78.61028 | 17010 ft | 387 kts | 104° |
| 2026-05-05 09:09 | 25.37980 | -78.58120 | 17016 ft | 387 kts | 104° |
| 2026-05-05 09:09 | 25.37400 | -78.55212 | 17014 ft | 387 kts | 104° |
| 2026-05-05 09:09 | 25.36822 | -78.52302 | 17011 ft | 387 kts | 104° |
| 2026-05-05 09:09 | 25.36246 | -78.49397 | 17009 ft | 387 kts | 104° |
| 2026-05-05 09:10 | 25.35669 | -78.46487 | 17012 ft | 387 kts | 104° |
| 2026-05-05 09:10 | 25.35095 | -78.43604 | 16838 ft | 381 kts | 105° |
| 2026-05-05 09:10 | 25.34529 | -78.40763 | 16589 ft | 375 kts | 105° |
| 2026-05-05 09:10 | 25.33974 | -78.37979 | 16343 ft | 368 kts | 105° |
| 2026-05-05 09:11 | 25.33424 | -78.35229 | 16094 ft | 364 kts | 105° |
| 2026-05-05 09:11 | 25.32877 | -78.32504 | 15854 ft | 362 kts | 105° |
| 2026-05-05 09:11 | 25.32333 | -78.29797 | 15611 ft | 360 kts | 105° |
| 2026-05-05 09:11 | 25.31792 | -78.27108 | 15375 ft | 358 kts | 105° |
| 2026-05-05 09:12 | 25.31244 | -78.24397 | 15136 ft | 356 kts | 105° |
| 2026-05-05 09:12 | 25.30709 | -78.21740 | 14908 ft | 354 kts | 105° |
| 2026-05-05 09:12 | 25.30183 | -78.19108 | 14662 ft | 349 kts | 103° |
| 2026-05-05 09:12 | 25.29864 | -78.16451 | 14290 ft | 350 kts | 98° |
| 2026-05-05 09:13 | 25.29603 | -78.13765 | 13888 ft | 351 kts | 98° |
| 2026-05-05 09:13 | 25.29342 | -78.11080 | 13451 ft | 352 kts | 97° |
| 2026-05-05 09:13 | 25.29081 | -78.08395 | 13033 ft | 351 kts | 97° |
| 2026-05-05 09:13 | 25.28817 | -78.05711 | 12620 ft | 350 kts | 97° |
| 2026-05-05 09:14 | 25.28552 | -78.03044 | 12198 ft | 349 kts | 97° |
| 2026-05-05 09:14 | 25.28288 | -78.00383 | 11773 ft | 348 kts | 97° |
| 2026-05-05 09:14 | 25.28025 | -77.97727 | 11347 ft | 347 kts | 97° |
| 2026-05-05 09:14 | 25.27764 | -77.95071 | 10901 ft | 347 kts | 97° |
| 2026-05-05 09:15 | 25.27502 | -77.92433 | 10508 ft | 345 kts | 97° |
| 2026-05-05 09:15 | 25.27241 | -77.89806 | 10080 ft | 343 kts | 97° |
| 2026-05-05 09:15 | 25.26985 | -77.87216 | 9897 ft | 333 kts | 97° |
| 2026-05-05 09:15 | 25.26736 | -77.84719 | 9707 ft | 323 kts | 97° |
| 2026-05-05 09:16 | 25.26491 | -77.82293 | 9150 ft | 311 kts | 97° |
| 2026-05-05 09:16 | 25.26259 | -77.79989 | 8652 ft | 293 kts | 97° |
| 2026-05-05 09:16 | 25.26037 | -77.77783 | 7949 ft | 286 kts | 97° |
| 2026-05-05 09:16 | 25.25817 | -77.75621 | 7266 ft | 283 kts | 97° |
| 2026-05-05 09:17 | 25.25598 | -77.73473 | 6614 ft | 279 kts | 97° |
| 2026-05-05 09:17 | 25.25381 | -77.71355 | 5950 ft | 275 kts | 97° |
| 2026-05-05 09:17 | 25.25166 | -77.69276 | 5298 ft | 271 kts | 97° |
| 2026-05-05 09:17 | 25.24952 | -77.67223 | 4682 ft | 267 kts | 97° |
| 2026-05-05 09:18 | 25.24741 | -77.65203 | 4046 ft | 263 kts | 97° |
| 2026-05-05 09:18 | 25.24534 | -77.63215 | 3480 ft | 257 kts | 97° |
| 2026-05-05 09:18 | 25.24375 | -77.61293 | 3794 ft | 255 kts | 96° |
| 2026-05-05 09:18 | 25.24218 | -77.59317 | 4185 ft | 261 kts | 96° |
| 2026-05-05 09:19 | 25.24058 | -77.57312 | 4579 ft | 263 kts | 96° |
| 2026-05-05 09:19 | 25.23919 | -77.55286 | 4944 ft | 268 kts | 90° |
| 2026-05-05 09:19 | 25.24342 | -77.53294 | 5025 ft | 269 kts | 61° |
| 2026-05-05 09:19 | 25.25545 | -77.51702 | 5037 ft | 268 kts | 40° |
| 2026-05-05 09:20 | 25.26972 | -77.50390 | 5039 ft | 268 kts | 37° |
| 2026-05-05 09:20 | 25.28464 | -77.49208 | 5034 ft | 266 kts | 24° |
| 2026-05-05 09:20 | 25.30222 | -77.48669 | 4945 ft | 262 kts | 360° |
| 2026-05-05 09:20 | 25.32004 | -77.48974 | 4790 ft | 257 kts | 335° |
| 2026-05-05 09:21 | 25.33505 | -77.50051 | 4659 ft | 254 kts | 311° |
| 2026-05-05 09:21 | 25.34449 | -77.51636 | 4372 ft | 244 kts | 288° |
| 2026-05-05 09:21 | 25.34751 | -77.53454 | 4098 ft | 240 kts | 267° |
| 2026-05-05 09:21 | 25.34418 | -77.55243 | 3829 ft | 238 kts | 245° |
| 2026-05-05 09:22 | 25.33505 | -77.56756 | 3561 ft | 238 kts | 224° |
| 2026-05-05 09:22 | 25.32146 | -77.57780 | 3301 ft | 238 kts | 202° |
| 2026-05-05 09:22 | 25.30591 | -77.58398 | 3038 ft | 238 kts | 200° |
| 2026-05-05 09:22 | 25.29031 | -77.59004 | 2764 ft | 237 kts | 200° |
| 2026-05-05 09:23 | 25.27481 | -77.59612 | 2499 ft | 236 kts | 199° |
| 2026-05-05 09:23 | 25.25932 | -77.60221 | 2228 ft | 236 kts | 199° |
| 2026-05-05 09:23 | 25.24400 | -77.60824 | 2037 ft | 229 kts | 198° |
| 2026-05-05 09:23 | 25.22942 | -77.61397 | 2001 ft | 215 kts | 199° |
| 2026-05-05 09:24 | 25.21539 | -77.61946 | 1996 ft | 213 kts | 198° |
| 2026-05-05 09:24 | 25.20133 | -77.62449 | 2000 ft | 212 kts | 187° |
| 2026-05-05 09:24 | 25.18694 | -77.62285 | 2003 ft | 210 kts | 156° |
| 2026-05-05 09:24 | 25.17537 | -77.61334 | 2005 ft | 209 kts | 135° |
| 2026-05-05 09:25 | 25.17192 | -77.60948 | 1963 ft | 209 kts | 135° |
| 2026-05-05 09:25 | 25.15505 | -77.59056 | 1775 ft | 208 kts | 135° |
| 2026-05-05 09:25 | 25.14482 | -77.57913 | 1699 ft | 207 kts | 135° |
| 2026-05-05 09:25 | 25.13510 | -77.56829 | 1726 ft | 189 kts | 135° |
| 2026-05-05 09:26 | 25.12632 | -77.55851 | 1709 ft | 171 kts | 136° |
| 2026-05-05 09:26 | 25.11836 | -77.54965 | 1697 ft | 155 kts | 136° |
| 2026-05-05 09:26 | 25.11096 | -77.54142 | 1600 ft | 148 kts | 136° |
| 2026-05-05 09:26 | 25.10372 | -77.53337 | 1435 ft | 147 kts | 136° |
| 2026-05-05 09:27 | 25.09652 | -77.52536 | 1260 ft | 147 kts | 136° |
| 2026-05-05 09:27 | 25.08935 | -77.51738 | 1078 ft | 146 kts | 136° |
| 2026-05-05 09:27 | 25.08219 | -77.50942 | 898 ft | 146 kts | 136° |
| 2026-05-05 09:27 | 25.07508 | -77.50152 | 716 ft | 145 kts | 136° |
| 2026-05-05 09:28 | 25.06795 | -77.49362 | 509 ft | 145 kts | 135° |
| 2026-05-05 09:28 | 25.06071 | -77.48561 | 295 ft | 146 kts | 134° |
| 2026-05-05 09:28 | 25.05366 | -77.47777 | 86 ft | 146 kts | 134° |
| 2026-05-05 09:28 | 25.04684 | -77.47013 | 13 ft | 125 kts | 134° |
| 2026-05-05 09:29 | 25.04190 | -77.46455 | 10 ft | 75 kts | 129° |
| 2026-05-05 09:29 | 25.04026 | -77.46144 | 13 ft | 4 kts | 105° |
| 2026-05-05 09:29 | 25.04023 | -77.46128 | 12 ft | 20 kts | 100° |
| 2026-05-05 09:29 | 25.03904 | -77.45897 | 13 ft | 39 kts | 137° |
| 2026-05-05 09:30 | 25.03714 | -77.45682 | 14 ft | 39 kts | 132° |
| 2026-05-05 09:30 | 25.03557 | -77.45532 | 11 ft | 0 kts | 144° |
| 2026-05-05 09:30 | 25.03552 | -77.45527 | 11 ft | 0 kts | 131° |
| 2026-05-05 09:30 | 25.03559 | -77.45511 | 12 ft | 6 kts | 52° |
| 2026-05-05 09:31 | 25.03573 | -77.45513 | 11 ft | 2 kts | 332° |
| 2026-05-05 09:31 | 25.03595 | -77.45542 | 11 ft | 16 kts | 312° |
| 2026-05-05 09:31 | 25.03733 | -77.45710 | 13 ft | 42 kts | 313° |
| 2026-05-05 09:31 | 25.03969 | -77.45951 | 13 ft | 45 kts | 318° |
| 2026-05-05 09:32 | 25.04126 | -77.46128 | 13 ft | 26 kts | 313° |
| 2026-05-05 09:32 | 25.04256 | -77.46273 | 12 ft | 25 kts | 315° |
| 2026-05-05 09:32 | 25.04357 | -77.46386 | 13 ft | 21 kts | 313° |
| 2026-05-05 09:32 | 25.04463 | -77.46499 | 12 ft | 22 kts | 317° |
| 2026-05-05 09:33 | 25.04565 | -77.46615 | 12 ft | 21 kts | 315° |
| 2026-05-05 09:33 | 25.04662 | -77.46725 | 12 ft | 20 kts | 327° |
| 2026-05-05 09:33 | 25.04771 | -77.46665 | 14 ft | 18 kts | 53° |
| 2026-05-05 09:33 | 25.04830 | -77.46655 | 12 ft | 4 kts | 310° |
| 2026-05-05 09:34 | 25.04840 | -77.46664 | 12 ft | 0 kts | 327° |